createdAt,value
2023-05-17T00:02:01.047Z,4.07
2023-05-17T00:04:28.334Z,4.20
2023-05-17T00:06:55.369Z,4.07
2023-05-17T00:09:22.213Z,3.53
2023-05-17T00:11:49.048Z,3.78
2023-05-17T00:14:16.283Z,3.83
2023-05-17T00:16:43.191Z,3.63
2023-05-17T00:19:10.240Z,3.47
2023-05-17T00:21:38.039Z,4.43
2023-05-17T00:24:05.469Z,3.60
2023-05-17T00:26:33.700Z,3.45
2023-05-17T00:29:00.860Z,3.72
2023-05-17T00:31:27.860Z,3.53
2023-05-17T00:33:54.726Z,3.35
2023-05-17T00:36:21.683Z,3.70
2023-05-17T00:38:48.483Z,3.88
2023-05-17T00:41:15.531Z,3.60
2023-05-17T00:43:42.313Z,3.50
2023-05-17T00:46:09.898Z,3.22
2023-05-17T00:48:38.070Z,3.80
2023-05-17T00:51:06.120Z,3.92
2023-05-17T00:53:33.683Z,4.30
2023-05-17T00:56:02.157Z,3.72
2023-05-17T00:58:30.678Z,3.80
2023-05-17T01:00:59.694Z,3.70
2023-05-17T01:03:27.702Z,4.00
2023-05-17T01:05:55.669Z,4.18
2023-05-17T01:08:22.569Z,3.83
2023-05-17T01:11:35.329Z,4.40
2023-05-17T01:14:24.063Z,4.07
2023-05-17T01:17:07.127Z,4.05
2023-05-17T01:20:07.449Z,4.13
2023-05-17T01:23:21.281Z,3.85
2023-05-17T01:26:10.693Z,4.55
2023-05-17T01:28:46.777Z,4.50
2023-05-17T01:31:14.773Z,4.40
2023-05-17T01:33:41.862Z,4.25
2023-05-17T01:36:09.267Z,4.10
2023-05-17T01:38:36.150Z,4.20
2023-05-17T01:41:21.822Z,4.53
2023-05-17T01:44:18.327Z,4.32
2023-05-17T01:46:45.410Z,4.10
2023-05-17T01:49:28.743Z,4.40
2023-05-17T01:52:31.986Z,4.15
2023-05-17T01:55:14.518Z,4.65
2023-05-17T01:57:45.129Z,4.45
2023-05-17T02:00:14.511Z,4.72
2023-05-17T02:02:41.692Z,5.25
2023-05-17T02:05:09.096Z,4.55
2023-05-17T02:07:40.030Z,3.90
2023-05-17T02:10:07.913Z,4.20
2023-05-17T02:12:36.428Z,4.72
2023-05-17T02:15:04.048Z,3.78
2023-05-17T02:17:31.147Z,4.20
2023-05-17T02:19:58.109Z,3.80
2023-05-17T02:22:24.958Z,4.68
2023-05-17T02:24:51.961Z,3.88
2023-05-17T02:27:18.814Z,4.65
2023-05-17T02:29:45.663Z,3.63
2023-05-17T02:32:12.488Z,3.97
2023-05-17T02:34:39.392Z,4.32
2023-05-17T02:37:06.447Z,4.32
2023-05-17T02:39:33.867Z,4.60
2023-05-17T02:42:00.789Z,4.30
2023-05-17T02:44:27.645Z,4.47
2023-05-17T02:46:54.501Z,4.60
2023-05-17T02:49:21.439Z,4.75
2023-05-17T02:51:48.360Z,4.75
2023-05-17T02:54:15.677Z,3.75
2023-05-17T02:56:42.526Z,3.92
2023-05-17T02:59:09.470Z,4.80
2023-05-17T03:01:37.950Z,4.07
2023-05-17T03:04:05.519Z,4.25
2023-05-17T03:06:32.509Z,4.15
2023-05-17T03:08:59.338Z,4.15
2023-05-17T03:11:26.663Z,4.43
2023-05-17T03:13:59.054Z,3.60
2023-05-17T03:16:27.715Z,4.43
2023-05-17T03:18:54.924Z,3.88
2023-05-17T03:21:22.456Z,3.90
2023-05-17T03:23:50.471Z,4.47
2023-05-17T03:26:19.701Z,4.45
2023-05-17T03:28:50.388Z,3.92
2023-05-17T03:31:18.969Z,3.97
2023-05-17T03:33:46.110Z,4.20
2023-05-17T03:36:13.482Z,3.85
2023-05-17T03:38:40.573Z,4.57
2023-05-17T03:41:07.560Z,3.80
2023-05-17T03:43:34.498Z,3.85
2023-05-17T03:46:02.083Z,4.05
2023-05-17T03:48:29.752Z,4.10
2023-05-17T03:50:56.741Z,4.00
2023-05-17T03:53:23.664Z,3.92
2023-05-17T03:55:50.543Z,3.85
2023-05-17T03:58:18.336Z,3.45
2023-05-17T04:00:45.372Z,4.00
2023-05-17T04:03:16.953Z,3.38
2023-05-17T04:05:46.605Z,3.60
2023-05-17T04:08:13.920Z,3.50
2023-05-17T04:10:42.132Z,3.35
2023-05-17T04:13:09.697Z,3.03
2023-05-17T04:15:37.925Z,3.47
2023-05-17T04:18:06.203Z,3.28
2023-05-17T04:20:33.148Z,3.78
2023-05-17T04:23:00.242Z,3.53
2023-05-17T04:25:29.764Z,3.72
2023-05-17T04:27:56.977Z,3.25
2023-05-17T04:30:24.915Z,3.10
2023-05-17T04:32:51.909Z,3.10
2023-05-17T04:35:19.180Z,4.15
2023-05-17T04:37:48.873Z,3.00
2023-05-17T04:40:21.257Z,3.40
2023-05-17T04:42:48.901Z,3.25
2023-05-17T04:45:17.649Z,3.90
2023-05-17T04:47:44.615Z,4.65
2023-05-17T04:50:12.483Z,4.28
2023-05-17T04:52:39.397Z,3.85
2023-05-17T04:55:06.831Z,3.00
2023-05-17T04:57:33.620Z,3.15
2023-05-17T05:00:10.167Z,2.97
2023-05-17T05:02:39.419Z,3.38
2023-05-17T05:05:07.496Z,2.92
2023-05-17T05:07:35.476Z,2.70
2023-05-17T05:10:03.536Z,3.10
2023-05-17T05:12:30.450Z,3.17
2023-05-17T05:14:59.046Z,2.95
2023-05-17T05:17:27.359Z,2.70
2023-05-17T05:19:54.390Z,3.53
2023-05-17T05:22:21.521Z,3.13
2023-05-17T05:24:48.485Z,3.25
2023-05-17T05:27:16.078Z,3.08
2023-05-17T05:29:43.509Z,2.80
2023-05-17T05:32:11.569Z,2.67
2023-05-17T05:34:43.995Z,2.88
2023-05-17T05:37:10.998Z,2.60
2023-05-17T05:39:37.976Z,3.08
2023-05-17T05:42:05.491Z,3.22
2023-05-17T05:44:32.329Z,2.80
2023-05-17T05:47:00.179Z,3.05
2023-05-17T05:49:27.164Z,3.55
2023-05-17T05:51:54.326Z,2.47
2023-05-17T05:54:21.999Z,2.47
2023-05-17T05:56:51.226Z,3.03
2023-05-17T05:59:19.836Z,2.70
2023-05-17T06:01:46.774Z,2.67
2023-05-17T06:04:13.687Z,2.25
2023-05-17T06:06:41.344Z,2.15
2023-05-17T06:09:12.248Z,2.28
2023-05-17T06:11:39.709Z,2.20
2023-05-17T06:14:06.801Z,2.40
2023-05-17T06:16:34.595Z,2.42
2023-05-17T06:19:01.520Z,3.25
2023-05-17T06:21:28.653Z,2.55
2023-05-17T06:23:55.508Z,2.20
2023-05-17T06:26:22.515Z,2.45
2023-05-17T06:28:49.529Z,2.47
2023-05-17T06:31:16.918Z,2.80
2023-05-17T06:33:44.322Z,2.63
2023-05-17T06:36:11.363Z,1.92
2023-05-17T06:38:38.223Z,2.35
2023-05-17T06:41:05.466Z,2.17
2023-05-17T06:43:32.316Z,2.28
2023-05-17T06:45:59.174Z,2.17
2023-05-17T06:48:26.769Z,1.92
2023-05-17T06:50:53.858Z,1.98
2023-05-17T06:53:21.151Z,1.98
2023-05-17T06:55:48.320Z,1.70
2023-05-17T06:58:15.162Z,2.17
2023-05-17T07:00:42.020Z,1.90
2023-05-17T07:03:09.005Z,1.27
2023-05-17T07:05:36.385Z,1.75
2023-05-17T07:08:03.513Z,1.58
2023-05-17T07:10:30.341Z,1.30
2023-05-17T07:12:57.197Z,1.92
2023-05-17T07:15:24.033Z,1.13
2023-05-17T07:17:51.038Z,1.20
2023-05-17T07:20:17.931Z,1.40
2023-05-17T07:22:44.872Z,1.33
2023-05-17T07:25:11.855Z,1.65
2023-05-17T07:27:38.812Z,1.20
2023-05-17T07:30:07.238Z,1.73
2023-05-17T07:32:34.179Z,1.17
2023-05-17T07:35:02.253Z,1.30
2023-05-17T07:37:29.137Z,1.42
2023-05-17T07:39:56.233Z,1.45
2023-05-17T07:42:23.279Z,1.20
2023-05-17T07:44:50.223Z,1.13
2023-05-17T07:47:18.176Z,1.40
2023-05-17T07:49:45.176Z,1.63
2023-05-17T07:52:12.022Z,1.15
2023-05-17T07:54:39.285Z,1.95
2023-05-17T07:57:06.268Z,1.23
2023-05-17T07:59:33.363Z,1.20
2023-05-17T08:02:00.430Z,1.20
2023-05-17T08:04:27.320Z,1.20
2023-05-17T08:06:55.321Z,1.58
2023-05-17T08:09:22.182Z,1.20
2023-05-17T08:11:51.679Z,1.10
2023-05-17T08:14:21.280Z,0.95
2023-05-17T08:16:48.235Z,1.27
2023-05-17T08:19:16.691Z,1.55
2023-05-17T08:21:43.937Z,1.20
2023-05-17T08:24:11.558Z,1.00
2023-05-17T08:26:38.901Z,1.17
2023-05-17T08:29:05.910Z,1.00
2023-05-17T08:31:33.105Z,1.13
2023-05-17T08:34:02.056Z,1.27
2023-05-17T08:36:29.040Z,1.17
2023-05-17T08:38:56.072Z,1.00
2023-05-17T08:41:23.117Z,1.13
2023-05-17T08:43:51.249Z,1.05
2023-05-17T08:46:22.561Z,1.75
2023-05-17T08:48:59.837Z,1.25
2023-05-17T08:51:27.706Z,1.23
2023-05-17T08:53:55.879Z,1.15
2023-05-17T08:56:25.731Z,1.10
2023-05-17T08:58:57.865Z,1.00
2023-05-17T09:01:27.580Z,1.63
2023-05-17T09:03:56.493Z,1.30
2023-05-17T09:06:24.389Z,1.02
2023-05-17T09:08:53.341Z,1.35
2023-05-17T09:11:34.674Z,1.00
2023-05-17T09:14:04.821Z,1.17
2023-05-17T09:16:35.071Z,1.50
2023-05-17T09:19:05.359Z,1.45
2023-05-17T09:21:34.808Z,1.35
2023-05-17T09:26:46.010Z,1.40
2023-05-17T09:29:17.419Z,0.98
2023-05-17T09:31:45.132Z,1.08
2023-05-17T09:34:12.652Z,1.35
2023-05-17T09:36:43.896Z,1.40
2023-05-17T09:39:13.450Z,0.88
2023-05-17T09:41:48.693Z,1.52
2023-05-17T09:44:16.428Z,1.30
2023-05-17T09:46:48.677Z,0.90
2023-05-17T09:49:17.674Z,1.02
2023-05-17T09:51:49.848Z,1.52
2023-05-17T09:54:17.909Z,0.95
2023-05-17T09:56:45.125Z,0.93
2023-05-17T09:59:17.057Z,1.08
2023-05-17T10:01:45.887Z,1.65
2023-05-17T10:04:14.115Z,0.80
2023-05-17T10:06:49.836Z,0.80
2023-05-17T10:09:22.300Z,0.80
2023-05-17T10:11:52.737Z,1.60
2023-05-17T10:14:28.538Z,0.93
2023-05-17T10:16:57.055Z,1.10
2023-05-17T10:19:25.832Z,1.30
2023-05-17T10:21:54.014Z,0.77
2023-05-17T10:24:22.770Z,0.80
2023-05-17T10:26:51.321Z,0.90
2023-05-17T10:29:21.135Z,1.00
2023-05-17T10:31:51.230Z,0.93
2023-05-17T10:34:19.991Z,0.90
2023-05-17T10:36:49.903Z,0.95
2023-05-17T10:39:16.964Z,1.63
2023-05-17T10:41:47.966Z,0.98
2023-05-17T10:44:17.472Z,0.85
2023-05-17T10:46:59.565Z,0.93
2023-05-17T10:49:31.567Z,0.90
2023-05-17T10:52:19.080Z,1.08
2023-05-17T10:54:50.371Z,1.15
2023-05-17T10:57:46.808Z,1.08
2023-05-17T11:00:21.864Z,0.80
2023-05-17T11:03:22.495Z,0.90
2023-05-17T11:06:25.686Z,0.95
2023-05-17T11:09:18.631Z,1.20
2023-05-17T11:12:06.203Z,0.80
2023-05-17T11:14:45.540Z,1.35
2023-05-17T11:17:17.835Z,1.50
2023-05-17T11:20:05.877Z,1.88
2023-05-17T11:22:43.294Z,1.00
2023-05-17T11:25:13.616Z,1.00
2023-05-17T11:27:50.433Z,0.93
2023-05-17T11:30:43.447Z,1.02
2023-05-17T11:33:20.531Z,1.27
2023-05-17T11:35:55.712Z,1.08
2023-05-17T11:38:30.176Z,1.75
2023-05-17T11:40:57.824Z,1.08
2023-05-17T11:43:31.271Z,1.50
2023-05-17T11:46:02.412Z,1.10
2023-05-17T11:48:31.455Z,1.00
2023-05-17T11:51:00.738Z,1.45
2023-05-17T11:53:31.764Z,1.38
2023-05-17T11:56:04.633Z,1.42
2023-05-17T11:58:32.528Z,1.17
2023-05-17T12:00:59.447Z,1.40
2023-05-17T12:03:31.818Z,1.10
2023-05-17T12:06:12.970Z,1.50
2023-05-17T12:08:45.175Z,1.52
2023-05-17T12:11:14.945Z,1.50
2023-05-17T12:13:42.648Z,1.23
2023-05-17T12:16:17.890Z,1.40
2023-05-17T12:18:50.300Z,1.00
2023-05-17T12:21:19.059Z,1.70
2023-05-17T12:23:51.474Z,1.88
2023-05-17T12:26:22.699Z,1.48
2023-05-17T12:29:00.852Z,1.20
2023-05-17T12:31:50.896Z,1.42
2023-05-17T12:34:19.163Z,1.48
2023-05-17T12:36:46.801Z,1.15
2023-05-17T12:39:15.572Z,1.50
2023-05-17T12:41:43.659Z,1.60
2023-05-17T12:44:15.150Z,1.70
2023-05-17T12:46:43.934Z,1.70
2023-05-17T12:49:12.229Z,1.65
2023-05-17T12:51:46.712Z,1.42
2023-05-17T12:54:36.757Z,1.67
2023-05-17T12:57:12.982Z,1.25
2023-05-17T12:59:52.870Z,1.20
2023-05-17T13:02:20.805Z,1.45
2023-05-17T13:04:47.978Z,1.67
2023-05-17T13:07:26.603Z,1.45
2023-05-17T13:09:53.734Z,1.95
2023-05-17T13:12:23.859Z,1.40
2023-05-17T13:14:53.298Z,1.52
2023-05-17T13:17:34.187Z,1.67
2023-05-17T13:20:01.649Z,2.00
2023-05-17T13:22:28.645Z,1.67
2023-05-17T13:24:55.862Z,1.58
2023-05-17T13:27:22.848Z,1.75
2023-05-17T13:29:49.725Z,1.40
2023-05-17T13:32:16.642Z,1.60
2023-05-17T13:34:43.446Z,1.27
2023-05-17T13:37:12.324Z,1.80
2023-05-17T13:39:40.891Z,1.70
2023-05-17T13:42:07.850Z,1.25
2023-05-17T13:44:34.740Z,1.58
2023-05-17T13:47:01.892Z,1.40
2023-05-17T13:49:28.828Z,1.48
2023-05-17T13:51:56.561Z,1.58
2023-05-17T13:54:23.562Z,1.80
2023-05-17T13:56:50.716Z,1.75
2023-05-17T13:59:17.650Z,1.67
2023-05-17T14:01:45.086Z,1.70
2023-05-17T14:04:12.188Z,1.55
2023-05-17T14:06:39.636Z,1.80
2023-05-17T14:09:06.682Z,2.20
2023-05-17T14:11:34.486Z,1.33
2023-05-17T14:14:01.498Z,2.08
2023-05-17T14:16:28.377Z,1.30
2023-05-17T14:18:55.662Z,1.98
2023-05-17T14:21:22.745Z,1.77
2023-05-17T14:23:49.580Z,1.70
2023-05-17T14:26:16.523Z,1.75
2023-05-17T14:28:43.376Z,1.63
2023-05-17T14:31:10.806Z,1.40
2023-05-17T14:33:37.926Z,1.50
2023-05-17T14:36:05.187Z,1.60
2023-05-17T14:38:32.121Z,1.58
2023-05-17T14:41:02.252Z,1.45
2023-05-17T14:43:29.285Z,1.88
2023-05-17T14:45:56.230Z,1.45
2023-05-17T14:48:23.357Z,1.50
2023-05-17T14:50:51.316Z,1.95
2023-05-17T14:53:18.180Z,1.60
2023-05-17T14:55:45.004Z,1.25
2023-05-17T14:58:14.813Z,1.70
2023-05-17T15:00:47.206Z,1.63
2023-05-17T15:03:14.999Z,2.00
2023-05-17T15:05:43.366Z,1.23
2023-05-17T15:08:11.068Z,1.70
2023-05-17T15:10:38.546Z,1.33
2023-05-17T15:13:05.471Z,1.67
2023-05-17T15:15:36.675Z,1.63
2023-05-17T15:18:03.816Z,1.65
2023-05-17T15:20:30.771Z,1.60
2023-05-17T15:22:57.634Z,2.08
2023-05-17T15:25:24.429Z,1.45
2023-05-17T15:27:51.320Z,1.90
2023-05-17T15:30:18.320Z,1.35
2023-05-17T15:32:45.979Z,2.08
2023-05-17T15:35:12.958Z,1.48
2023-05-17T15:37:39.943Z,1.67
2023-05-17T15:40:09.734Z,1.45
2023-05-17T15:42:37.167Z,1.75
2023-05-17T15:45:04.756Z,1.75
2023-05-17T15:47:42.332Z,1.45
2023-05-17T15:50:11.225Z,1.48
2023-05-17T15:52:39.373Z,1.67
2023-05-17T15:55:06.547Z,1.90
2023-05-17T15:57:33.729Z,1.85
2023-05-17T16:00:00.738Z,1.83
2023-05-17T16:02:27.666Z,1.52
2023-05-17T16:04:55.210Z,1.88
2023-05-17T16:07:22.668Z,1.30
2023-05-17T16:09:49.455Z,1.60
2023-05-17T16:12:16.296Z,1.50
2023-05-17T16:14:44.792Z,1.65
2023-05-17T16:17:11.695Z,1.48
2023-05-17T16:19:38.647Z,2.10
2023-05-17T16:22:05.583Z,1.80
2023-05-17T16:24:32.565Z,1.80
2023-05-17T16:26:59.447Z,1.77
2023-05-17T16:29:26.212Z,1.55
2023-05-17T16:31:53.479Z,1.80
2023-05-17T16:34:20.489Z,1.40
2023-05-17T16:36:48.259Z,2.13
2023-05-17T16:39:15.243Z,2.42
2023-05-17T16:41:42.164Z,1.70
2023-05-17T16:44:09.107Z,1.70
2023-05-17T16:46:37.890Z,1.50
2023-05-17T16:49:04.957Z,1.83
2023-05-17T16:51:31.856Z,1.65
2023-05-17T16:53:58.643Z,1.80
2023-05-17T16:56:25.552Z,1.80
2023-05-17T16:58:52.442Z,1.70
2023-05-17T17:01:19.409Z,1.60
2023-05-17T17:03:46.336Z,1.70
2023-05-17T17:06:13.311Z,1.55
2023-05-17T17:08:41.672Z,1.48
2023-05-17T17:11:08.632Z,1.80
2023-05-17T17:13:35.752Z,1.85
2023-05-17T17:16:02.670Z,1.80
2023-05-17T17:18:29.644Z,1.70
2023-05-17T17:20:57.283Z,1.60
2023-05-17T17:23:24.165Z,1.60
2023-05-17T17:25:51.079Z,1.65
2023-05-17T17:28:17.954Z,1.98
2023-05-17T17:30:45.000Z,1.80
2023-05-17T17:33:11.851Z,2.17
2023-05-17T17:35:38.769Z,1.92
2023-05-17T17:38:05.719Z,1.50
2023-05-17T17:40:32.773Z,1.90
2023-05-17T17:42:59.761Z,1.60
2023-05-17T17:45:26.627Z,1.95
2023-05-17T17:47:53.543Z,1.27
2023-05-17T17:50:20.836Z,1.60
2023-05-17T17:52:48.117Z,1.42
2023-05-17T17:55:15.295Z,1.70
2023-05-17T17:57:42.398Z,2.35
2023-05-17T18:00:12.015Z,1.42
2023-05-17T18:02:39.734Z,2.05
2023-05-17T18:05:07.143Z,2.00
2023-05-17T18:07:34.118Z,1.23
2023-05-17T18:10:01.939Z,1.83
2023-05-17T18:12:29.456Z,1.55
2023-05-17T18:14:56.300Z,1.38
2023-05-17T18:17:23.413Z,1.92
2023-05-17T18:19:50.334Z,2.15
2023-05-17T18:22:17.384Z,1.80
2023-05-17T18:24:45.084Z,1.63
2023-05-17T18:27:14.993Z,1.80
2023-05-17T18:29:42.568Z,1.80
2023-05-17T18:32:09.805Z,2.13
2023-05-17T18:34:37.990Z,1.88
2023-05-17T18:37:05.109Z,1.60
2023-05-17T18:39:32.203Z,1.65
2023-05-17T18:41:59.413Z,1.50
2023-05-17T18:44:26.308Z,1.30
2023-05-17T18:46:54.051Z,1.40
2023-05-17T18:49:21.371Z,1.45
2023-05-17T18:51:48.550Z,1.25
2023-05-17T18:54:15.413Z,1.30
2023-05-17T18:56:42.245Z,1.98
2023-05-17T18:59:09.216Z,1.45
2023-05-17T19:01:36.870Z,1.55
2023-05-17T19:04:04.005Z,2.08
2023-05-17T19:06:31.798Z,1.63
2023-05-17T19:08:59.562Z,1.20
2023-05-17T19:11:28.513Z,1.65
2023-05-17T19:13:56.036Z,1.52
2023-05-17T19:16:22.967Z,1.58
2023-05-17T19:18:50.225Z,0.90
2023-05-17T19:21:17.365Z,1.45
2023-05-17T19:23:44.642Z,1.70
2023-05-17T19:26:11.566Z,1.30
2023-05-17T19:28:39.849Z,1.13
2023-05-17T19:31:08.213Z,1.50
2023-05-17T19:33:37.509Z,1.00
2023-05-17T19:36:04.649Z,1.50
2023-05-17T19:38:33.124Z,1.52
2023-05-17T19:41:01.290Z,1.70
2023-05-17T19:43:28.248Z,1.60
2023-05-17T19:45:55.574Z,1.55
2023-05-17T19:48:24.111Z,1.05
2023-05-17T19:50:51.404Z,1.20
2023-05-17T19:53:18.342Z,1.50
2023-05-17T19:55:45.321Z,1.45
2023-05-17T19:58:12.196Z,2.03
2023-05-17T20:00:39.132Z,1.58
2023-05-17T20:03:06.148Z,1.40
2023-05-17T20:05:33.414Z,1.65
2023-05-17T20:08:02.501Z,1.35
2023-05-17T20:10:33.155Z,1.70
2023-05-17T20:13:00.119Z,1.60
2023-05-17T20:15:27.173Z,1.63
2023-05-17T20:17:54.154Z,1.67
2023-05-17T20:20:21.863Z,1.90
2023-05-17T20:22:48.832Z,1.80
2023-05-17T20:25:15.966Z,1.80
2023-05-17T20:27:43.383Z,2.28
2023-05-17T20:30:11.127Z,2.13
2023-05-17T20:32:38.005Z,1.60
2023-05-17T20:35:05.922Z,1.40
2023-05-17T20:37:32.846Z,1.95
2023-05-17T20:40:00.260Z,1.77
2023-05-17T20:42:28.200Z,1.90
2023-05-17T20:44:55.509Z,2.15
2023-05-17T20:47:22.312Z,2.00
2023-05-17T20:49:50.161Z,1.52
2023-05-17T20:52:27.590Z,1.83
2023-05-17T20:55:05.612Z,1.52
2023-05-17T20:57:32.397Z,2.30
2023-05-17T20:59:59.186Z,2.22
2023-05-17T21:02:26.305Z,2.70
2023-05-17T21:04:54.348Z,2.70
2023-05-17T21:07:22.296Z,3.35
2023-05-17T21:09:49.076Z,2.00
2023-05-17T21:12:16.014Z,2.30
2023-05-17T21:14:42.947Z,2.05
2023-05-17T21:17:10.289Z,1.80
2023-05-17T21:19:37.182Z,1.80
2023-05-17T21:22:04.375Z,1.70
2023-05-17T21:24:31.303Z,1.40
2023-05-17T21:26:58.444Z,1.80
2023-05-17T21:29:25.404Z,2.00
2023-05-17T21:31:52.333Z,1.65
2023-05-17T21:34:19.313Z,1.73
2023-05-17T21:36:46.357Z,1.48
2023-05-17T21:39:13.261Z,1.98
2023-05-17T21:41:40.062Z,2.15
2023-05-17T21:44:06.880Z,1.70
2023-05-17T21:46:33.713Z,2.13
2023-05-17T21:49:00.566Z,1.75
2023-05-17T21:51:27.411Z,1.60
2023-05-17T21:53:54.574Z,1.65
2023-05-17T21:56:21.731Z,1.85
2023-05-17T21:58:48.565Z,2.67
2023-05-17T22:01:17.296Z,1.83
2023-05-17T22:03:44.255Z,1.88
2023-05-17T22:06:11.193Z,1.65
2023-05-17T22:08:37.973Z,1.60
2023-05-17T22:11:05.622Z,1.63
2023-05-17T22:13:32.507Z,2.05
2023-05-17T22:15:59.365Z,1.90
2023-05-17T22:18:27.060Z,1.73
2023-05-17T22:20:55.008Z,1.70
2023-05-17T22:23:21.907Z,1.77
2023-05-17T22:25:48.777Z,1.88
2023-05-17T22:28:15.697Z,1.60
2023-05-17T22:30:46.480Z,2.13
2023-05-17T22:33:13.438Z,1.70
2023-05-17T22:35:41.070Z,1.95
2023-05-17T22:38:07.972Z,1.52
2023-05-17T22:40:34.819Z,1.83
2023-05-17T22:43:01.610Z,2.05
2023-05-17T22:45:32.804Z,2.03
2023-05-17T22:48:02.726Z,2.15
2023-05-17T22:50:30.628Z,1.98
2023-05-17T22:52:58.601Z,2.10
2023-05-17T22:55:25.744Z,1.40
2023-05-17T22:57:53.506Z,1.85
2023-05-17T23:00:20.596Z,1.92
2023-05-17T23:02:47.521Z,1.75
2023-05-17T23:05:14.556Z,1.85
2023-05-17T23:07:43.179Z,1.90
2023-05-17T23:10:10.978Z,1.90
2023-05-17T23:12:38.676Z,1.85
2023-05-17T23:15:06.772Z,1.70
2023-05-17T23:17:33.786Z,1.90
2023-05-17T23:20:10.300Z,1.80
2023-05-17T23:22:37.658Z,1.45
2023-05-17T23:25:05.955Z,1.85
2023-05-17T23:27:35.248Z,1.80
2023-05-17T23:30:03.090Z,1.60
2023-05-17T23:32:32.478Z,1.70
2023-05-17T23:35:03.369Z,1.70
2023-05-17T23:37:33.931Z,2.05
2023-05-17T23:40:01.611Z,2.17
2023-05-17T23:42:31.824Z,1.63
2023-05-17T23:45:03.367Z,1.92
2023-05-17T23:47:30.898Z,1.77
2023-05-17T23:49:57.851Z,1.85
2023-05-17T23:52:24.877Z,1.90
2023-05-17T23:54:51.892Z,1.85
2023-05-17T23:57:18.731Z,1.95
2023-05-17T23:59:45.589Z,1.90
